sensor_id;sensor_type;location;lat;lon;timestamp;temperature;humidity
9941;DHT22;5009;50.656;7.188;2023-03-01T05:02:35;-2.90;99.90
9941;DHT22;5009;50.656;7.188;2023-03-01T05:05:01;-3.00;99.90
9941;DHT22;5009;50.656;7.188;2023-03-01T05:07:27;-3.00;99.90
9941;DHT22;5009;50.656;7.188;2023-03-01T05:09:52;-3.10;99.90
9941;DHT22;5009;50.656;7.188;2023-03-01T05:12:18;-3.00;99.90
9941;DHT22;5009;50.656;7.188;2023-03-01T05:14:43;-3.00;99.90
9941;DHT22;5009;50.656;7.188;2023-03-01T05:17:09;-3.00;99.90
9941;DHT22;5009;50.656;7.188;2023-03-01T05:19:35;-3.00;99.90
9941;DHT22;5009;50.656;7.188;2023-03-01T05:22:40;-3.00;99.90
9941;DHT22;5009;50.656;7.188;2023-03-01T05:25:06;-3.00;99.90
9941;DHT22;5009;50.656;7.188;2023-03-01T05:28:32;-3.10;99.90
9941;DHT22;5009;50.656;7.188;2023-03-01T05:30:58;-3.10;99.90
9941;DHT22;5009;50.656;7.188;2023-03-01T05:35:32;-3.10;99.90
9941;DHT22;5009;50.656;7.188;2023-03-01T05:37:58;-3.10;99.90
9941;DHT22;5009;50.656;7.188;2023-03-01T05:42:45;-3.10;99.90
9941;DHT22;5009;50.656;7.188;2023-03-01T05:45:12;-3.10;99.90
9941;DHT22;5009;50.656;7.188;2023-03-01T05:47:40;-3.10;99.90
9941;DHT22;5009;50.656;7.188;2023-03-01T05:50:12;-3.20;99.90
9941;DHT22;5009;50.656;7.188;2023-03-01T05:52:45;-3.20;99.90
9941;DHT22;5009;50.656;7.188;2023-03-01T05:55:10;-3.20;99.90
9941;DHT22;5009;50.656;7.188;2023-03-01T05:57:36;-3.20;99.90
9941;DHT22;5009;50.656;7.188;2023-03-01T06:00:02;-3.20;99.90
9941;DHT22;5009;50.656;7.188;2023-03-01T06:02:44;-3.30;99.90
9941;DHT22;5009;50.656;7.188;2023-03-01T06:05:11;-3.30;99.90
9941;DHT22;5009;50.656;7.188;2023-03-01T06:07:38;-3.30;99.90
9941;DHT22;5009;50.656;7.188;2023-03-01T06:10:05;-3.30;99.90
9941;DHT22;5009;50.656;7.188;2023-03-01T06:12:35;-3.30;99.90
9941;DHT22;5009;50.656;7.188;2023-03-01T06:15:01;-3.30;99.90
9941;DHT22;5009;50.656;7.188;2023-03-01T06:17:33;-3.30;99.90
9941;DHT22;5009;50.656;7.188;2023-03-01T06:20:06;-3.30;99.90
9941;DHT22;5009;50.656;7.188;2023-03-01T06:22:44;-3.30;99.90
9941;DHT22;5009;50.656;7.188;2023-03-01T06:25:11;-3.30;99.90
9941;DHT22;5009;50.656;7.188;2023-03-01T06:27:37;-3.30;99.90
9941;DHT22;5009;50.656;7.188;2023-03-01T06:30:04;-3.30;99.90
9941;DHT22;5009;50.656;7.188;2023-03-01T06:32:29;-3.30;99.90
9941;DHT22;5009;50.656;7.188;2023-03-01T06:34:56;-3.30;99.90
9941;DHT22;5009;50.656;7.188;2023-03-01T06:37:24;-3.20;99.90
9941;DHT22;5009;50.656;7.188;2023-03-01T06:39:50;-3.20;99.90
9941;DHT22;5009;50.656;7.188;2023-03-01T06:42:15;-3.20;99.90
9941;DHT22;5009;50.656;7.188;2023-03-01T06:44:41;-3.10;99.90
9941;DHT22;5009;50.656;7.188;2023-03-01T06:47:06;-3.10;99.90
9941;DHT22;5009;50.656;7.188;2023-03-01T06:49:32;-3.10;99.90
9941;DHT22;5009;50.656;7.188;2023-03-01T06:51:57;-3.10;99.90
9941;DHT22;5009;50.656;7.188;2023-03-01T06:54:23;-3.00;99.90
9941;DHT22;5009;50.656;7.188;2023-03-01T06:56:49;-3.00;99.90
9941;DHT22;5009;50.656;7.188;2023-03-01T06:59:16;-2.90;99.90
9941;DHT22;5009;50.656;7.188;2023-03-01T07:01:42;-2.80;99.90
9941;DHT22;5009;50.656;7.188;2023-03-01T07:04:07;-2.80;99.90
9941;DHT22;5009;50.656;7.188;2023-03-01T07:06:33;-2.70;99.90
9941;DHT22;5009;50.656;7.188;2023-03-01T07:08:58;-2.70;99.90
9941;DHT22;5009;50.656;7.188;2023-03-01T07:11:24;-2.60;99.90
9941;DHT22;5009;50.656;7.188;2023-03-01T07:13:50;-2.60;99.90
9941;DHT22;5009;50.656;7.188;2023-03-01T07:16:15;-2.50;99.90
9941;DHT22;5009;50.656;7.188;2023-03-01T07:18:41;-2.30;99.90
9941;DHT22;5009;50.656;7.188;2023-03-01T07:21:08;-2.10;99.90
9941;DHT22;5009;50.656;7.188;2023-03-01T07:24:59;-1.70;99.90
9941;DHT22;5009;50.656;7.188;2023-03-01T07:27:25;-1.30;99.90
9941;DHT22;5009;50.656;7.188;2023-03-01T07:29:51;-0.80;99.90
9941;DHT22;5009;50.656;7.188;2023-03-01T07:32:34;-0.40;99.20
9941;DHT22;5009;50.656;7.188;2023-03-01T07:34:59;0.20;97.20
9941;DHT22;5009;50.656;7.188;2023-03-01T07:37:25;1.00;94.90
9941;DHT22;5009;50.656;7.188;2023-03-01T07:39:51;1.90;92.10
9941;DHT22;5009;50.656;7.188;2023-03-01T07:42:16;2.60;90.10
9941;DHT22;5009;50.656;7.188;2023-03-01T07:44:42;2.90;87.20
9941;DHT22;5009;50.656;7.188;2023-03-01T07:47:07;3.00;85.30
9941;DHT22;5009;50.656;7.188;2023-03-01T07:49:33;3.20;85.20
9941;DHT22;5009;50.656;7.188;2023-03-01T07:51:58;3.40;84.10
9941;DHT22;5009;50.656;7.188;2023-03-01T07:54:24;3.70;83.70
9941;DHT22;5009;50.656;7.188;2023-03-01T07:56:49;4.20;83.40
9941;DHT22;5009;50.656;7.188;2023-03-01T07:59:15;4.90;81.30
9941;DHT22;5009;50.656;7.188;2023-03-01T08:01:40;5.60;78.50
9941;DHT22;5009;50.656;7.188;2023-03-01T08:04:08;6.30;76.00
9941;DHT22;5009;50.656;7.188;2023-03-01T08:06:35;6.80;73.50
9941;DHT22;5009;50.656;7.188;2023-03-01T08:09:00;7.00;71.60
9941;DHT22;5009;50.656;7.188;2023-03-01T08:11:26;7.10;70.00
9941;DHT22;5009;50.656;7.188;2023-03-01T08:13:53;7.10;69.40
9941;DHT22;5009;50.656;7.188;2023-03-01T08:16:19;7.10;69.90
9941;DHT22;5009;50.656;7.188;2023-03-01T08:18:45;7.20;69.50
9941;DHT22;5009;50.656;7.188;2023-03-01T08:21:16;7.20;68.70
9941;DHT22;5009;50.656;7.188;2023-03-01T08:23:42;7.00;68.00
9941;DHT22;5009;50.656;7.188;2023-03-01T08:26:19;6.70;68.00
9941;DHT22;5009;50.656;7.188;2023-03-01T08:28:46;6.30;68.70
9941;DHT22;5009;50.656;7.188;2023-03-01T08:31:20;5.70;70.20
9941;DHT22;5009;50.656;7.188;2023-03-01T08:33:47;5.30;71.90
9941;DHT22;5009;50.656;7.188;2023-03-01T08:36:21;4.80;73.30
9941;DHT22;5009;50.656;7.188;2023-03-01T08:38:46;4.60;75.20
9941;DHT22;5009;50.656;7.188;2023-03-01T08:41:12;4.40;76.60
9941;DHT22;5009;50.656;7.188;2023-03-01T08:43:38;4.20;77.50
9941;DHT22;5009;50.656;7.188;2023-03-01T08:46:04;4.10;78.70
9941;DHT22;5009;50.656;7.188;2023-03-01T08:48:29;3.90;80.20
9941;DHT22;5009;50.656;7.188;2023-03-01T08:50:55;3.90;81.00
9941;DHT22;5009;50.656;7.188;2023-03-01T08:53:21;3.90;82.10
9941;DHT22;5009;50.656;7.188;2023-03-01T08:55:46;4.10;83.00
9941;DHT22;5009;50.656;7.188;2023-03-01T08:58:12;4.30;82.70
9941;DHT22;5009;50.656;7.188;2023-03-01T09:00:38;4.50;83.50
9941;DHT22;5009;50.656;7.188;2023-03-01T09:03:03;4.70;83.10
9941;DHT22;5009;50.656;7.188;2023-03-01T09:05:33;4.90;83.70
9941;DHT22;5009;50.656;7.188;2023-03-01T09:07:59;5.10;81.90
9941;DHT22;5009;50.656;7.188;2023-03-01T09:10:25;5.20;80.90
9941;DHT22;5009;50.656;7.188;2023-03-01T09:12:51;5.40;80.40
9941;DHT22;5009;50.656;7.188;2023-03-01T09:15:17;5.60;80.80
9941;DHT22;5009;50.656;7.188;2023-03-01T09:17:42;5.70;80.20
9941;DHT22;5009;50.656;7.188;2023-03-01T09:20:08;5.90;79.40
9941;DHT22;5009;50.656;7.188;2023-03-01T09:22:34;5.90;78.40
9941;DHT22;5009;50.656;7.188;2023-03-01T09:25:00;6.00;78.70
9941;DHT22;5009;50.656;7.188;2023-03-01T09:27:26;6.10;78.80
9941;DHT22;5009;50.656;7.188;2023-03-01T09:29:52;6.10;78.30
9941;DHT22;5009;50.656;7.188;2023-03-01T09:32:17;6.20;78.00
9941;DHT22;5009;50.656;7.188;2023-03-01T09:34:43;6.20;76.80
9941;DHT22;5009;50.656;7.188;2023-03-01T09:37:30;6.10;76.70
9941;DHT22;5009;50.656;7.188;2023-03-01T09:39:57;6.10;76.80
9941;DHT22;5009;50.656;7.188;2023-03-01T09:42:22;6.20;76.50
9941;DHT22;5009;50.656;7.188;2023-03-01T09:44:53;6.30;75.80
9941;DHT22;5009;50.656;7.188;2023-03-01T09:47:23;6.20;74.00
9941;DHT22;5009;50.656;7.188;2023-03-01T09:50:06;6.10;74.70
9941;DHT22;5009;50.656;7.188;2023-03-01T09:55:17;6.10;74.20
9941;DHT22;5009;50.656;7.188;2023-03-01T09:57:56;5.90;73.80
9941;DHT22;5009;50.656;7.188;2023-03-01T10:00:41;5.80;74.30
9941;DHT22;5009;50.656;7.188;2023-03-01T10:03:21;5.80;75.00
9941;DHT22;5009;50.656;7.188;2023-03-01T10:05:51;5.90;74.70
9941;DHT22;5009;50.656;7.188;2023-03-01T10:08:56;6.00;75.60
9941;DHT22;5009;50.656;7.188;2023-03-01T10:11:30;6.10;75.10
9941;DHT22;5009;50.656;7.188;2023-03-01T10:20:18;6.20;74.00
9941;DHT22;5009;50.656;7.188;2023-03-01T10:22:44;6.20;74.90
9941;DHT22;5009;50.656;7.188;2023-03-01T10:25:24;6.20;74.20
9941;DHT22;5009;50.656;7.188;2023-03-01T10:27:55;6.20;73.50
9941;DHT22;5009;50.656;7.188;2023-03-01T10:30:37;6.20;72.30
9941;DHT22;5009;50.656;7.188;2023-03-01T10:33:17;6.10;71.10
9941;DHT22;5009;50.656;7.188;2023-03-01T10:35:45;6.00;71.80
9941;DHT22;5009;50.656;7.188;2023-03-01T10:38:13;6.00;71.80
9941;DHT22;5009;50.656;7.188;2023-03-01T10:41:00;6.00;70.90
9941;DHT22;5009;50.656;7.188;2023-03-01T10:43:52;6.00;71.20
9941;DHT22;5009;50.656;7.188;2023-03-01T10:46:37;5.80;69.50
9941;DHT22;5009;50.656;7.188;2023-03-01T10:49:15;5.70;69.70
9941;DHT22;5009;50.656;7.188;2023-03-01T10:51:44;5.60;70.40
9941;DHT22;5009;50.656;7.188;2023-03-01T10:54:22;5.50;70.90
9941;DHT22;5009;50.656;7.188;2023-03-01T10:56:54;5.60;70.30
9941;DHT22;5009;50.656;7.188;2023-03-01T10:59:28;5.60;70.20
9941;DHT22;5009;50.656;7.188;2023-03-01T11:04:34;5.50;69.80
9941;DHT22;5009;50.656;7.188;2023-03-01T11:07:00;5.60;69.60
9941;DHT22;5009;50.656;7.188;2023-03-01T11:09:31;5.60;70.00
9941;DHT22;5009;50.656;7.188;2023-03-01T11:12:03;5.50;70.30
9941;DHT22;5009;50.656;7.188;2023-03-01T11:14:37;5.60;72.10
9941;DHT22;5009;50.656;7.188;2023-03-01T11:17:29;5.60;72.30
9941;DHT22;5009;50.656;7.188;2023-03-01T11:22:32;5.80;72.40
9941;DHT22;5009;50.656;7.188;2023-03-01T11:24:59;5.90;72.80
9941;DHT22;5009;50.656;7.188;2023-03-01T11:27:32;5.90;72.40
9941;DHT22;5009;50.656;7.188;2023-03-01T11:35:28;6.00;71.70
9941;DHT22;5009;50.656;7.188;2023-03-01T11:38:16;6.00;70.80
9941;DHT22;5009;50.656;7.188;2023-03-01T11:40:52;5.80;68.30
9941;DHT22;5009;50.656;7.188;2023-03-01T11:43:37;5.90;70.40
9941;DHT22;5009;50.656;7.188;2023-03-01T11:51:38;5.90;70.10
9941;DHT22;5009;50.656;7.188;2023-03-01T11:57:20;6.00;68.30
9941;DHT22;5009;50.656;7.188;2023-03-01T12:03:22;6.00;68.70
9941;DHT22;5009;50.656;7.188;2023-03-01T12:17:04;6.10;66.00
9941;DHT22;5009;50.656;7.188;2023-03-01T12:22:49;6.20;66.10
9941;DHT22;5009;50.656;7.188;2023-03-01T12:25:41;6.30;66.50
9941;DHT22;5009;50.656;7.188;2023-03-01T12:28:16;6.30;65.00
9941;DHT22;5009;50.656;7.188;2023-03-01T12:42:36;6.40;63.20
9941;DHT22;5009;50.656;7.188;2023-03-01T12:50:54;6.50;62.00
9941;DHT22;5009;50.656;7.188;2023-03-01T12:56:25;6.50;60.60
9941;DHT22;5009;50.656;7.188;2023-03-01T12:59:21;6.60;60.00
9941;DHT22;5009;50.656;7.188;2023-03-01T13:04:38;6.70;59.10
9941;DHT22;5009;50.656;7.188;2023-03-01T13:10:33;6.90;58.60
9941;DHT22;5009;50.656;7.188;2023-03-01T13:13:22;6.80;58.00
9941;DHT22;5009;50.656;7.188;2023-03-01T13:15:49;6.90;57.60
9941;DHT22;5009;50.656;7.188;2023-03-01T13:30:57;7.00;57.80
9941;DHT22;5009;50.656;7.188;2023-03-01T13:35:49;7.00;57.50
9941;DHT22;5009;50.656;7.188;2023-03-01T13:38:46;7.10;57.40
9941;DHT22;5009;50.656;7.188;2023-03-01T13:41:14;7.10;57.30
9941;DHT22;5009;50.656;7.188;2023-03-01T13:43:42;7.10;56.80
9941;DHT22;5009;50.656;7.188;2023-03-01T13:46:20;7.10;56.50
9941;DHT22;5009;50.656;7.188;2023-03-01T13:48:50;7.20;56.70
9941;DHT22;5009;50.656;7.188;2023-03-01T13:51:21;7.20;56.50
9941;DHT22;5009;50.656;7.188;2023-03-01T13:53:48;7.30;56.20
9941;DHT22;5009;50.656;7.188;2023-03-01T13:56:18;7.30;56.40
9941;DHT22;5009;50.656;7.188;2023-03-01T14:01:27;7.50;55.80
9941;DHT22;5009;50.656;7.188;2023-03-01T14:03:53;7.60;56.10
9941;DHT22;5009;50.656;7.188;2023-03-01T14:06:30;7.60;56.30
9941;DHT22;5009;50.656;7.188;2023-03-01T14:14:46;7.60;55.50
9941;DHT22;5009;50.656;7.188;2023-03-01T14:17:44;7.60;55.20
9941;DHT22;5009;50.656;7.188;2023-03-01T14:20:18;7.70;55.60
9941;DHT22;5009;50.656;7.188;2023-03-01T14:22:45;7.70;55.40
9941;DHT22;5009;50.656;7.188;2023-03-01T14:25:32;7.70;54.30
9941;DHT22;5009;50.656;7.188;2023-03-01T14:33:37;7.70;54.20
9941;DHT22;5009;50.656;7.188;2023-03-01T14:36:09;7.70;54.00
9941;DHT22;5009;50.656;7.188;2023-03-01T14:38:41;7.70;53.70
9941;DHT22;5009;50.656;7.188;2023-03-01T14:41:18;7.70;53.40
9941;DHT22;5009;50.656;7.188;2023-03-01T14:43:47;7.70;52.60
9941;DHT22;5009;50.656;7.188;2023-03-01T14:46:20;7.80;52.40
9941;DHT22;5009;50.656;7.188;2023-03-01T14:48:49;7.90;52.00
9941;DHT22;5009;50.656;7.188;2023-03-01T14:51:15;7.90;52.30
9941;DHT22;5009;50.656;7.188;2023-03-01T14:53:42;7.90;52.40
9941;DHT22;5009;50.656;7.188;2023-03-01T14:56:14;7.80;52.20
9941;DHT22;5009;50.656;7.188;2023-03-01T14:58:43;7.90;52.10
9941;DHT22;5009;50.656;7.188;2023-03-01T15:01:15;7.90;52.20
9941;DHT22;5009;50.656;7.188;2023-03-01T15:03:47;7.90;51.80
9941;DHT22;5009;50.656;7.188;2023-03-01T15:06:19;7.90;51.60
9941;DHT22;5009;50.656;7.188;2023-03-01T15:08:48;8.00;51.40
9941;DHT22;5009;50.656;7.188;2023-03-01T15:11:21;8.00;51.20
9941;DHT22;5009;50.656;7.188;2023-03-01T15:13:50;8.00;50.80
9941;DHT22;5009;50.656;7.188;2023-03-01T15:16:22;8.00;50.60
9941;DHT22;5009;50.656;7.188;2023-03-01T15:18:53;8.10;50.30
9941;DHT22;5009;50.656;7.188;2023-03-01T15:21:29;8.10;50.70
9941;DHT22;5009;50.656;7.188;2023-03-01T15:26:49;8.10;49.50
9941;DHT22;5009;50.656;7.188;2023-03-01T15:29:21;8.30;48.50
9941;DHT22;5009;50.656;7.188;2023-03-01T15:32:01;8.20;48.30
9941;DHT22;5009;50.656;7.188;2023-03-01T15:34:31;8.20;48.70
9941;DHT22;5009;50.656;7.188;2023-03-01T15:36:59;8.20;48.50
9941;DHT22;5009;50.656;7.188;2023-03-01T15:39:41;8.20;48.80
9941;DHT22;5009;50.656;7.188;2023-03-01T15:47:47;8.10;48.60
9941;DHT22;5009;50.656;7.188;2023-03-01T15:50:26;8.20;48.90
9941;DHT22;5009;50.656;7.188;2023-03-01T15:52:52;8.10;48.60
9941;DHT22;5009;50.656;7.188;2023-03-01T15:55:27;8.10;48.80
9941;DHT22;5009;50.656;7.188;2023-03-01T15:58:04;8.10;48.90
9941;DHT22;5009;50.656;7.188;2023-03-01T16:00:32;8.10;48.90
9941;DHT22;5009;50.656;7.188;2023-03-01T16:02:58;8.10;49.20
9941;DHT22;5009;50.656;7.188;2023-03-01T16:05:31;8.10;49.90
9941;DHT22;5009;50.656;7.188;2023-03-01T16:07:57;8.10;49.40
9941;DHT22;5009;50.656;7.188;2023-03-01T16:10:24;8.10;49.20
9941;DHT22;5009;50.656;7.188;2023-03-01T16:12:50;8.10;49.60
9941;DHT22;5009;50.656;7.188;2023-03-01T16:15:29;8.10;50.00
9941;DHT22;5009;50.656;7.188;2023-03-01T16:17:55;8.10;49.70
9941;DHT22;5009;50.656;7.188;2023-03-01T16:20:23;8.10;49.50
9941;DHT22;5009;50.656;7.188;2023-03-01T16:22:50;8.00;49.30
9941;DHT22;5009;50.656;7.188;2023-03-01T16:25:18;8.00;49.30
9941;DHT22;5009;50.656;7.188;2023-03-01T16:27:49;8.00;49.60
9941;DHT22;5009;50.656;7.188;2023-03-01T16:30:19;8.10;49.80
9941;DHT22;5009;50.656;7.188;2023-03-01T16:32:46;8.00;49.40
9941;DHT22;5009;50.656;7.188;2023-03-01T16:35:13;7.90;49.30
9941;DHT22;5009;50.656;7.188;2023-03-01T16:37:39;7.90;49.30
9941;DHT22;5009;50.656;7.188;2023-03-01T16:40:07;7.90;49.30
9941;DHT22;5009;50.656;7.188;2023-03-01T16:42:37;7.90;49.50
9941;DHT22;5009;50.656;7.188;2023-03-01T16:45:03;7.90;48.70
9941;DHT22;5009;50.656;7.188;2023-03-01T16:47:29;7.90;48.60
9941;DHT22;5009;50.656;7.188;2023-03-01T16:49:55;7.90;48.70
9941;DHT22;5009;50.656;7.188;2023-03-01T16:52:22;7.80;48.80
9941;DHT22;5009;50.656;7.188;2023-03-01T16:54:48;7.80;48.60
9941;DHT22;5009;50.656;7.188;2023-03-01T16:57:13;7.80;48.90
9941;DHT22;5009;50.656;7.188;2023-03-01T16:59:39;7.80;47.70
9941;DHT22;5009;50.656;7.188;2023-03-01T17:02:06;7.80;47.40
9941;DHT22;5009;50.656;7.188;2023-03-01T17:04:35;7.80;47.60
9941;DHT22;5009;50.656;7.188;2023-03-01T17:07:00;7.80;47.20
9941;DHT22;5009;50.656;7.188;2023-03-01T17:09:26;7.80;47.70
9941;DHT22;5009;50.656;7.188;2023-03-01T17:11:52;7.70;47.70
9941;DHT22;5009;50.656;7.188;2023-03-01T17:14:17;7.60;47.60
9941;DHT22;5009;50.656;7.188;2023-03-01T17:16:43;7.60;47.70
9941;DHT22;5009;50.656;7.188;2023-03-01T17:19:10;7.50;47.50
9941;DHT22;5009;50.656;7.188;2023-03-01T17:21:36;7.40;47.30
9941;DHT22;5009;50.656;7.188;2023-03-01T17:24:02;7.40;47.00
9941;DHT22;5009;50.656;7.188;2023-03-01T17:26:28;7.40;47.20
9941;DHT22;5009;50.656;7.188;2023-03-01T17:28:55;7.30;47.30
9941;DHT22;5009;50.656;7.188;2023-03-01T17:31:21;7.30;47.40
9941;DHT22;5009;50.656;7.188;2023-03-01T17:33:47;7.30;47.70
9941;DHT22;5009;50.656;7.188;2023-03-01T17:36:14;7.20;47.80
9941;DHT22;5009;50.656;7.188;2023-03-01T17:38:40;7.10;48.30
9941;DHT22;5009;50.656;7.188;2023-03-01T17:41:05;7.10;48.60
9941;DHT22;5009;50.656;7.188;2023-03-01T17:43:31;7.00;48.80
9941;DHT22;5009;50.656;7.188;2023-03-01T17:46:00;7.00;49.00
9941;DHT22;5009;50.656;7.188;2023-03-01T17:48:25;6.90;49.10
9941;DHT22;5009;50.656;7.188;2023-03-01T17:50:51;6.90;49.40
9941;DHT22;5009;50.656;7.188;2023-03-01T17:53:17;6.80;49.50
9941;DHT22;5009;50.656;7.188;2023-03-01T17:55:43;6.70;49.60
9941;DHT22;5009;50.656;7.188;2023-03-01T17:58:12;6.80;49.70
9941;DHT22;5009;50.656;7.188;2023-03-01T18:00:38;6.80;49.80
9941;DHT22;5009;50.656;7.188;2023-03-01T18:03:04;6.70;50.10
9941;DHT22;5009;50.656;7.188;2023-03-01T18:05:33;6.60;50.20
9941;DHT22;5009;50.656;7.188;2023-03-01T18:07:58;6.60;50.30
9941;DHT22;5009;50.656;7.188;2023-03-01T18:10:24;6.50;50.40
9941;DHT22;5009;50.656;7.188;2023-03-01T18:12:51;6.50;50.60
9941;DHT22;5009;50.656;7.188;2023-03-01T18:15:16;6.50;50.40
9941;DHT22;5009;50.656;7.188;2023-03-01T18:17:42;6.50;50.60
9941;DHT22;5009;50.656;7.188;2023-03-01T18:20:08;6.40;50.80
9941;DHT22;5009;50.656;7.188;2023-03-01T18:22:34;6.40;50.80
9941;DHT22;5009;50.656;7.188;2023-03-01T18:25:02;6.30;50.80
9941;DHT22;5009;50.656;7.188;2023-03-01T18:27:29;6.30;50.80
9941;DHT22;5009;50.656;7.188;2023-03-01T18:29:55;6.30;51.10
9941;DHT22;5009;50.656;7.188;2023-03-01T18:32:21;6.30;50.80
9941;DHT22;5009;50.656;7.188;2023-03-01T18:34:47;6.20;50.80
9941;DHT22;5009;50.656;7.188;2023-03-01T18:37:13;6.20;50.80
9941;DHT22;5009;50.656;7.188;2023-03-01T18:39:39;6.20;50.90
9941;DHT22;5009;50.656;7.188;2023-03-01T18:42:06;6.10;50.90
9941;DHT22;5009;50.656;7.188;2023-03-01T18:44:32;6.10;50.90
9941;DHT22;5009;50.656;7.188;2023-03-01T18:46:57;6.10;50.90
9941;DHT22;5009;50.656;7.188;2023-03-01T18:49:23;6.10;51.20
9941;DHT22;5009;50.656;7.188;2023-03-01T18:51:50;6.00;51.10
9941;DHT22;5009;50.656;7.188;2023-03-01T18:54:15;6.00;51.20
9941;DHT22;5009;50.656;7.188;2023-03-01T18:56:41;5.90;51.60
9941;DHT22;5009;50.656;7.188;2023-03-01T18:59:07;5.90;51.50
9941;DHT22;5009;50.656;7.188;2023-03-01T19:01:33;5.90;51.60
9941;DHT22;5009;50.656;7.188;2023-03-01T19:03:59;5.80;51.50
9941;DHT22;5009;50.656;7.188;2023-03-01T19:06:31;5.80;51.50
9941;DHT22;5009;50.656;7.188;2023-03-01T19:08:57;5.80;51.50
9941;DHT22;5009;50.656;7.188;2023-03-01T19:11:23;5.80;51.60
9941;DHT22;5009;50.656;7.188;2023-03-01T19:13:52;5.80;51.80
9941;DHT22;5009;50.656;7.188;2023-03-01T19:16:20;5.70;52.10
9941;DHT22;5009;50.656;7.188;2023-03-01T19:18:47;5.60;52.40
9941;DHT22;5009;50.656;7.188;2023-03-01T19:21:17;5.60;52.60
9941;DHT22;5009;50.656;7.188;2023-03-01T19:23:43;5.50;52.80
9941;DHT22;5009;50.656;7.188;2023-03-01T19:26:11;5.40;52.60
9941;DHT22;5009;50.656;7.188;2023-03-01T19:28:37;5.40;52.60
9941;DHT22;5009;50.656;7.188;2023-03-01T19:31:09;5.40;53.30
9941;DHT22;5009;50.656;7.188;2023-03-01T19:33:36;5.30;53.70
9941;DHT22;5009;50.656;7.188;2023-03-01T19:36:04;5.20;53.10
9941;DHT22;5009;50.656;7.188;2023-03-01T19:38:30;5.10;54.90
9941;DHT22;5009;50.656;7.188;2023-03-01T19:40:56;5.00;56.10
9941;DHT22;5009;50.656;7.188;2023-03-01T19:43:22;5.00;57.10
9941;DHT22;5009;50.656;7.188;2023-03-01T19:45:52;4.80;57.70
9941;DHT22;5009;50.656;7.188;2023-03-01T19:48:18;4.70;58.40
9941;DHT22;5009;50.656;7.188;2023-03-01T19:50:43;4.60;58.70
9941;DHT22;5009;50.656;7.188;2023-03-01T19:53:13;4.40;59.40
9941;DHT22;5009;50.656;7.188;2023-03-01T19:55:39;4.30;60.00
9941;DHT22;5009;50.656;7.188;2023-03-01T19:58:06;4.20;60.90
9941;DHT22;5009;50.656;7.188;2023-03-01T20:00:33;4.10;61.20
9941;DHT22;5009;50.656;7.188;2023-03-01T20:02:59;3.90;63.20
9941;DHT22;5009;50.656;7.188;2023-03-01T20:05:25;3.80;64.40
9941;DHT22;5009;50.656;7.188;2023-03-01T20:07:50;3.80;65.90
9941;DHT22;5009;50.656;7.188;2023-03-01T20:10:18;3.60;66.60
9941;DHT22;5009;50.656;7.188;2023-03-01T20:12:44;3.60;67.60
9941;DHT22;5009;50.656;7.188;2023-03-01T20:15:09;3.50;68.50
9941;DHT22;5009;50.656;7.188;2023-03-01T20:17:35;3.40;68.50
9941;DHT22;5009;50.656;7.188;2023-03-01T20:20:01;3.30;69.80
9941;DHT22;5009;50.656;7.188;2023-03-01T20:22:26;3.20;70.60
9941;DHT22;5009;50.656;7.188;2023-03-01T20:24:52;3.20;71.40
9941;DHT22;5009;50.656;7.188;2023-03-01T20:27:17;3.20;71.50
9941;DHT22;5009;50.656;7.188;2023-03-01T20:29:43;3.20;72.40
9941;DHT22;5009;50.656;7.188;2023-03-01T20:32:10;3.20;72.90
9941;DHT22;5009;50.656;7.188;2023-03-01T20:34:36;3.10;73.50
9941;DHT22;5009;50.656;7.188;2023-03-01T20:37:02;2.90;74.50
9941;DHT22;5009;50.656;7.188;2023-03-01T20:39:28;2.90;74.60
9941;DHT22;5009;50.656;7.188;2023-03-01T20:41:54;2.90;73.70
9941;DHT22;5009;50.656;7.188;2023-03-01T20:44:19;2.80;75.20
9941;DHT22;5009;50.656;7.188;2023-03-01T20:46:45;2.80;75.80
9941;DHT22;5009;50.656;7.188;2023-03-01T20:49:11;2.70;75.30
9941;DHT22;5009;50.656;7.188;2023-03-01T20:51:36;2.70;77.00
9941;DHT22;5009;50.656;7.188;2023-03-01T20:54:02;2.70;77.70
9941;DHT22;5009;50.656;7.188;2023-03-01T20:56:28;2.70;78.40
9941;DHT22;5009;50.656;7.188;2023-03-01T20:58:54;2.60;78.90
9941;DHT22;5009;50.656;7.188;2023-03-01T21:01:22;2.60;79.30
9941;DHT22;5009;50.656;7.188;2023-03-01T21:03:49;2.50;79.70
9941;DHT22;5009;50.656;7.188;2023-03-01T21:06:15;2.50;79.70
9941;DHT22;5009;50.656;7.188;2023-03-01T21:08:40;2.40;80.10
9941;DHT22;5009;50.656;7.188;2023-03-01T21:11:06;2.40;80.30
9941;DHT22;5009;50.656;7.188;2023-03-01T21:13:32;2.40;79.70
9941;DHT22;5009;50.656;7.188;2023-03-01T21:16:05;2.40;80.00
9941;DHT22;5009;50.656;7.188;2023-03-01T21:18:32;2.30;80.60
9941;DHT22;5009;50.656;7.188;2023-03-01T21:21:10;2.30;81.00
9941;DHT22;5009;50.656;7.188;2023-03-01T21:23:38;2.20;82.20
9941;DHT22;5009;50.656;7.188;2023-03-01T21:26:06;2.20;82.30
9941;DHT22;5009;50.656;7.188;2023-03-01T21:28:33;2.10;82.70
9941;DHT22;5009;50.656;7.188;2023-03-01T21:31:17;2.10;83.80
9941;DHT22;5009;50.656;7.188;2023-03-01T21:33:48;2.10;84.60
9941;DHT22;5009;50.656;7.188;2023-03-01T21:36:14;2.10;84.80
9941;DHT22;5009;50.656;7.188;2023-03-01T21:38:42;1.90;85.50
9941;DHT22;5009;50.656;7.188;2023-03-01T21:43:36;1.90;86.40
9941;DHT22;5009;50.656;7.188;2023-03-01T21:46:03;1.90;86.80
9941;DHT22;5009;50.656;7.188;2023-03-01T21:48:29;1.80;87.30
9941;DHT22;5009;50.656;7.188;2023-03-01T21:51:00;1.80;87.70
9941;DHT22;5009;50.656;7.188;2023-03-01T21:53:28;1.70;88.40
9941;DHT22;5009;50.656;7.188;2023-03-01T21:55:55;1.70;89.20
9941;DHT22;5009;50.656;7.188;2023-03-01T21:58:21;1.60;89.40
